Time;durP1;ratioP1;P1;durP2;ratioP2;P2;SDS_P1;SDS_P2;PMS_P1;PMS_P2;Temp;Humidity;BMP_temperature;BMP_pressure;BME280_temperature;BME280_humidity;BME280_pressure;Samples;Min_cycle;Max_cycle;Signal;HPM_P1;HPM_P2
2021/09/24 00:00:27;;;;;;;;;22.75;21.50;;;;;8.83;82.85;101038.31;5160815;27;11444;-73
2021/09/24 00:03:23;;;;;;;;;23.00;21.00;;;;;9.04;81.97;101032.31;5174707;27;11445;-73
2021/09/24 00:06:19;;;;;;;;;24.00;24.00;;;;;9.03;81.72;101038.97;5174541;27;11407;-74
2021/09/24 00:09:14;;;;;;;;;23.25;23.25;;;;;8.89;81.25;101031.56;5173703;27;11436;-74
2021/09/24 00:12:10;;;;;;;;;18.25;18.25;;;;;8.83;81.73;101030.06;5174483;27;12222;-73
2021/09/24 00:15:13;;;;;;;;;32.00;32.00;;;;;8.74;81.89;101029.16;5173739;27;11420;-74
2021/09/24 00:18:09;;;;;;;;;27.50;27.50;;;;;8.79;81.84;101025.44;5160177;27;11496;-74
2021/09/24 00:21:04;;;;;;;;;18.75;18.75;;;;;8.96;81.07;101024.78;5174472;27;12266;-74
2021/09/24 00:24:00;;;;;;;;;20.00;20.00;;;;;8.88;81.60;101031.84;5171672;27;11427;-74
2021/09/24 00:26:56;;;;;;;;;21.50;21.25;;;;;8.67;82.02;101028.75;5174594;27;12225;-74
2021/09/24 00:29:51;;;;;;;;;23.50;23.00;;;;;8.81;81.44;101025.94;5174302;27;11404;-73
2021/09/24 00:32:47;;;;;;;;;21.50;21.50;;;;;8.71;82.51;101035.28;5157204;27;11408;-73
2021/09/24 00:35:42;;;;;;;;;20.75;20.75;;;;;8.68;81.71;101037.84;5153572;27;11406;-73
2021/09/24 00:38:39;;;;;;;;;24.25;24.25;;;;;8.80;80.77;101035.34;5152366;27;11393;-74
2021/09/24 00:41:35;;;;;;;;;19.75;16.50;;;;;8.58;81.36;101033.34;5153480;27;11401;-73
2021/09/24 00:44:42;;;;;;;;;20.25;20.00;;;;;8.40;81.29;101023.28;5139635;27;12237;-73
2021/09/24 00:47:38;;;;;;;;;25.75;25.50;;;;;8.53;81.51;101023.28;5152443;27;11433;-73
2021/09/24 00:50:33;;;;;;;;;22.50;22.50;;;;;8.51;82.15;101022.78;5140048;27;11449;-73
2021/09/24 00:53:30;;;;;;;;;25.50;24.75;;;;;8.57;82.15;101032.53;5140642;27;11416;-73
2021/09/24 00:56:26;;;;;;;;;26.25;26.25;;;;;8.46;81.79;101031.13;5153150;27;11461;-74
2021/09/24 00:59:24;;;;;;;;;21.00;21.00;;;;;8.33;81.75;101037.44;5155974;27;11559;-73
2021/09/24 01:02:19;;;;;;;;;26.75;26.00;;;;;8.50;81.48;101034.91;5160333;27;11485;-73
2021/09/24 01:05:16;;;;;;;;;25.25;25.00;;;;;8.38;81.31;101029.09;5168796;27;11544;-73
2021/09/24 01:08:14;;;;;;;;;17.25;17.25;;;;;8.46;81.25;101038.59;5143318;27;11474;-73
2021/09/24 01:11:09;;;;;;;;;25.75;24.50;;;;;8.59;80.66;101046.03;5157274;27;11470;-73
2021/09/24 01:14:05;;;;;;;;;28.25;24.75;;;;;8.48;80.98;101039.91;5157203;27;11481;-73
2021/09/24 01:17:01;;;;;;;;;25.00;25.00;;;;;8.50;80.46;101037.66;5157156;27;11478;-74
2021/09/24 01:19:58;;;;;;;;;27.00;25.75;;;;;8.26;80.49;101034.28;5156957;27;11488;-74
2021/09/24 01:22:54;;;;;;;;;26.00;26.00;;;;;8.37;81.46;101024.72;5157614;27;11747;-74
2021/09/24 01:25:50;;;;;;;;;22.00;22.00;;;;;8.22;81.19;101025.00;5176354;27;11471;-74
2021/09/24 01:28:45;;;;;;;;;24.75;24.75;;;;;8.09;81.92;101032.16;5158143;27;11503;-74
2021/09/24 01:31:41;;;;;;;;;24.25;24.25;;;;;8.11;82.29;101026.31;5177722;27;11473;-74
2021/09/24 01:34:37;;;;;;;;;26.25;26.25;;;;;8.06;82.50;101030.84;5177565;27;11476;-73
2021/09/24 01:37:33;;;;;;;;;34.50;34.25;;;;;8.07;82.28;101040.72;5177370;27;12062;-74
2021/09/24 01:40:29;;;;;;;;;27.50;26.75;;;;;7.98;82.51;101037.06;5177537;27;11500;-73
2021/09/24 01:43:24;;;;;;;;;37.00;35.00;;;;;8.06;82.37;101028.06;5177178;27;11459;-73
2021/09/24 01:46:20;;;;;;;;;29.75;29.00;;;;;7.99;82.82;101026.84;5177344;27;11466;-73
2021/09/24 01:49:15;;;;;;;;;27.25;27.00;;;;;8.04;82.95;101032.22;5177217;27;11593;-74
2021/09/24 01:52:11;;;;;;;;;31.75;30.00;;;;;8.05;83.25;101031.09;5152802;27;11511;-74
2021/09/24 01:55:08;;;;;;;;;34.50;32.25;;;;;8.01;83.15;101028.16;5155638;27;11580;-75
2021/09/24 01:58:04;;;;;;;;;30.75;30.50;;;;;8.06;82.21;101032.78;5142223;27;11498;-73
2021/09/24 02:01:00;;;;;;;;;38.25;37.75;;;;;8.04;81.96;101024.78;5155929;27;11462;-74
2021/09/24 02:03:55;;;;;;;;;31.75;31.75;;;;;7.93;81.94;101026.13;5142426;27;11482;-74
2021/09/24 02:06:51;;;;;;;;;33.75;32.50;;;;;7.92;82.03;101027.25;5156044;27;11495;-74
2021/09/24 02:09:46;;;;;;;;;35.50;35.50;;;;;8.03;81.22;101028.66;5142178;27;11481;-73
2021/09/24 02:12:42;;;;;;;;;35.50;35.25;;;;;7.93;81.34;101028.06;5142269;27;11530;-73
2021/09/24 02:15:38;;;;;;;;;47.75;42.75;;;;;7.92;81.23;101034.69;5141681;27;11476;-73
2021/09/24 02:18:34;;;;;;;;;49.50;44.00;;;;;7.99;81.02;101044.19;5155719;27;11608;-74
2021/09/24 02:21:30;;;;;;;;;56.50;49.00;;;;;7.89;81.47;101038.03;5147692;27;12361;-73
2021/09/24 02:24:26;;;;;;;;;59.75;47.25;;;;;7.77;81.77;101033.84;5173743;27;11958;-73
2021/09/24 02:27:21;;;;;;;;;55.00;48.00;;;;;7.81;81.76;101032.13;5175863;27;12245;-73
2021/09/24 02:30:17;;;;;;;;;53.75;46.25;;;;;7.64;82.10;101040.16;5161945;27;11611;-74
2021/09/24 02:33:13;;;;;;;;;48.00;40.75;;;;;7.72;81.98;101027.63;5175030;27;11484;-74
2021/09/24 02:36:09;;;;;;;;;53.50;45.00;;;;;7.66;81.52;101028.81;5175591;27;11514;-73
2021/09/24 02:39:06;;;;;;;;;45.75;42.00;;;;;7.59;81.58;101032.00;5155301;27;11479;-74
2021/09/24 02:42:03;;;;;;;;;56.00;44.75;;;;;7.62;81.77;101022.31;5141427;27;11498;-73
2021/09/24 02:44:58;;;;;;;;;50.25;44.25;;;;;7.56;82.23;101018.00;5141722;27;11486;-73
2021/09/24 02:47:54;;;;;;;;;45.25;41.50;;;;;7.60;83.21;101011.59;5154203;27;11507;-74
2021/09/24 02:50:49;;;;;;;;;49.00;43.25;;;;;7.82;82.40;101016.44;5155216;27;11472;-74
2021/09/24 02:53:45;;;;;;;;;45.25;40.50;;;;;7.88;81.53;101025.41;5155165;27;11611;-74
2021/09/24 02:56:40;;;;;;;;;43.25;38.75;;;;;7.84;81.43;101007.88;5141255;27;11496;-74
2021/09/24 02:59:36;;;;;;;;;43.50;40.00;;;;;7.88;81.20;101004.19;5163571;27;11533;-73
2021/09/24 03:02:32;;;;;;;;;55.75;45.75;;;;;7.78;80.93;100998.88;5175605;27;11512;-74
2021/09/24 03:05:27;;;;;;;;;63.50;51.00;;;;;7.69;80.94;100996.00;5161111;27;11618;-73
2021/09/24 03:08:23;;;;;;;;;55.50;48.25;;;;;7.21;83.02;101014.75;5161802;27;11663;-74
2021/09/24 03:11:19;;;;;;;;;63.00;51.50;;;;;7.42;83.72;101009.72;5161503;27;11476;-74
2021/09/24 03:14:15;;;;;;;;;56.75;46.25;;;;;7.32;83.98;101009.91;5175771;27;11483;-74
2021/09/24 03:17:10;;;;;;;;;57.50;46.00;;;;;7.36;83.61;101008.16;5175186;27;11514;-74
2021/09/24 03:20:08;;;;;;;;;65.50;51.50;;;;;7.43;83.20;101003.09;5161536;27;11488;-74
2021/09/24 03:23:04;;;;;;;;;69.75;56.25;;;;;7.32;83.48;101002.47;5174553;27;11494;-73
2021/09/24 03:25:59;;;;;;;;;72.25;57.25;;;;;7.36;82.93;101009.00;5175393;27;11467;-74
2021/09/24 03:28:55;;;;;;;;;67.67;55.00;;;;;7.49;82.59;101013.72;5174735;27;11568;-73
2021/09/24 03:31:51;;;;;;;;;72.25;56.50;;;;;7.37;83.03;101004.31;5161846;27;11481;-73
2021/09/24 03:34:48;;;;;;;;;73.33;57.33;;;;;7.44;83.42;101000.06;5174434;27;11603;-73
2021/09/24 03:37:44;;;;;;;;;74.00;60.67;;;;;7.29;84.09;101002.25;5166160;27;11482;-73
2021/09/24 03:40:40;;;;;;;;;75.00;60.67;;;;;7.38;84.11;101000.44;5174310;27;11496;-72
2021/09/24 03:43:35;;;;;;;;;70.75;57.00;;;;;7.42;84.45;100993.19;5169121;27;11538;-73
2021/09/24 03:46:31;;;;;;;;;69.00;55.75;;;;;7.48;85.09;100981.81;5161243;27;11610;-74
2021/09/24 03:49:26;;;;;;;;;70.50;55.50;;;;;7.62;84.58;100990.09;5153759;27;11530;-73
2021/09/24 03:52:22;;;;;;;;;62.75;52.75;;;;;7.70;84.61;100991.31;5156805;27;12365;-74
2021/09/24 03:55:17;;;;;;;;;72.00;55.75;;;;;7.67;84.82;100986.44;5153041;27;11494;-73
2021/09/24 03:58:28;;;;;;;;;61.25;50.75;;;;;7.67;84.97;100986.44;5153843;27;11505;-74
2021/09/24 04:01:24;;;;;;;;;57.75;49.75;;;;;7.72;85.05;100978.88;5173938;27;12290;-74
2021/09/24 04:04:19;;;;;;;;;55.25;46.00;;;;;7.70;85.52;100981.13;5174341;27;11638;-74
2021/09/24 04:07:15;;;;;;;;;49.50;44.25;;;;;7.81;85.26;100984.47;5154167;27;11487;-74
2021/09/24 04:10:11;;;;;;;;;56.00;45.50;;;;;7.81;85.20;100974.28;5162125;27;11613;-74
2021/09/24 04:13:07;;;;;;;;;56.75;48.25;;;;;7.81;85.32;100973.47;5153724;27;11551;-75
2021/09/24 04:16:02;;;;;;;;;60.50;49.50;;;;;7.91;85.26;100978.00;5165721;27;12199;-73
2021/09/24 04:18:58;;;;;;;;;72.50;56.50;;;;;7.89;85.45;100958.19;5161320;27;11611;-73
2021/09/24 04:21:53;;;;;;;;;61.75;50.50;;;;;7.94;84.87;100960.84;5160755;27;11505;-73
2021/09/24 04:24:49;;;;;;;;;61.25;51.00;;;;;7.90;85.78;100970.81;5129582;27;11440;-72
2021/09/24 04:27:44;;;;;;;;;72.50;58.00;;;;;7.85;85.46;100957.16;5166842;27;11593;-72
2021/09/24 04:30:40;;;;;;;;;69.50;55.25;;;;;8.02;85.07;100958.19;5171511;27;11496;-73
2021/09/24 04:33:36;;;;;;;;;68.25;55.00;;;;;8.13;84.71;100961.56;5160534;27;11545;-73
2021/09/24 04:36:31;;;;;;;;;71.75;55.25;;;;;8.17;83.98;100972.75;5160624;27;11522;-73
2021/09/24 04:39:27;;;;;;;;;74.25;58.25;;;;;8.16;83.57;100971.94;5175425;27;11516;-72
2021/09/24 04:42:22;;;;;;;;;72.50;58.25;;;;;8.29;83.51;100976.63;5164668;27;11524;-72
2021/09/24 04:45:18;;;;;;;;;82.33;66.67;;;;;8.16;83.91;100976.63;5178535;27;11518;-73
2021/09/24 04:48:14;;;;;;;;;62.00;51.50;;;;;8.12;84.45;100970.91;5178517;27;11508;-72
2021/09/24 04:51:09;;;;;;;;;62.25;51.75;;;;;8.24;84.91;100962.94;5143901;27;11501;-73
2021/09/24 04:54:06;;;;;;;;;58.25;48.50;;;;;8.37;85.05;100961.34;5143415;27;11483;-73
2021/09/24 04:57:01;;;;;;;;;50.00;43.25;;;;;8.47;84.97;100963.84;5160001;27;11469;-72
2021/09/24 04:59:57;;;;;;;;;62.25;48.50;;;;;8.52;85.57;100966.50;5177728;27;11485;-73
2021/09/24 05:02:52;;;;;;;;;63.00;51.25;;;;;8.60;85.62;100962.19;5146193;27;12339;-72
2021/09/24 05:05:48;;;;;;;;;60.25;47.75;;;;;8.66;85.95;100968.38;5163209;27;11508;-72
2021/09/24 05:08:43;;;;;;;;;55.75;46.00;;;;;8.87;85.25;100975.88;5157692;27;11495;-73
2021/09/24 05:11:39;;;;;;;;;58.00;45.25;;;;;9.01;85.53;100972.25;5166314;27;11480;-73
2021/09/24 05:14:34;;;;;;;;;47.00;40.75;;;;;9.11;85.41;100981.09;5157094;27;11506;-73
2021/09/24 05:17:31;;;;;;;;;51.75;44.50;;;;;9.21;85.22;100979.22;5155849;27;11614;-73
2021/09/24 05:20:29;;;;;;;;;45.50;39.75;;;;;9.33;85.10;100976.69;5157101;27;11009;-73
2021/09/24 05:23:25;;;;;;;;;53.75;43.75;;;;;9.41;85.64;100976.72;5156728;27;11586;-74
2021/09/24 05:26:21;;;;;;;;;42.00;39.00;;;;;9.55;84.94;100973.09;5143255;27;12375;-74
2021/09/24 05:29:16;;;;;;;;;52.25;41.75;;;;;9.59;86.11;100974.09;5156672;27;11547;-73
2021/09/24 05:32:13;;;;;;;;;38.75;34.50;;;;;9.72;86.83;100975.91;5156797;27;11517;-74
2021/09/24 05:35:10;;;;;;;;;33.75;33.75;;;;;9.97;86.40;100979.94;5142556;27;11504;-74
2021/09/24 05:38:05;;;;;;;;;40.25;38.75;;;;;10.16;85.40;100974.94;5156439;27;11515;-74
2021/09/24 05:41:01;;;;;;;;;23.25;22.75;;;;;10.29;84.92;100974.03;5175321;27;11584;-74
2021/09/24 05:43:56;;;;;;;;;40.50;39.00;;;;;10.56;84.49;100970.16;5159259;27;11421;-73
2021/09/24 05:46:52;;;;;;;;;41.00;38.50;;;;;10.63;83.89;100974.41;5163522;27;11486;-73
2021/09/24 05:49:48;;;;;;;;;34.50;33.50;;;;;10.84;83.12;100980.94;5177021;27;11459;-73
2021/09/24 05:52:47;;;;;;;;;35.00;35.00;;;;;10.97;82.95;100979.97;5159144;27;11451;-73
2021/09/24 05:55:43;;;;;;;;;37.50;36.00;;;;;11.09;82.04;100988.41;5132455;27;11517;-72
2021/09/24 05:58:38;;;;;;;;;31.75;30.50;;;;;11.20;81.75;100980.59;5133983;27;11446;-73
2021/09/24 06:01:34;;;;;;;;;33.25;33.25;;;;;11.36;81.92;100978.13;5135240;27;11443;-74
2021/09/24 06:04:29;;;;;;;;;30.50;30.50;;;;;11.59;81.46;100979.53;5134458;27;11473;-73
2021/09/24 06:07:26;;;;;;;;;31.50;31.50;;;;;11.87;81.02;100968.03;5134338;27;11521;-73
2021/09/24 06:10:22;;;;;;;;;32.00;31.25;;;;;12.06;79.62;100971.22;5135837;27;11438;-73
2021/09/24 06:13:17;;;;;;;;;21.00;20.25;;;;;12.32;79.01;100967.47;5135988;27;11554;-73
2021/09/24 06:16:13;;;;;;;;;26.75;24.50;;;;;12.39;76.61;100965.78;5135904;27;10903;-73
2021/09/24 06:19:10;;;;;;;;;24.25;24.25;;;;;12.62;76.61;100968.25;5135614;27;10998;-73
2021/09/24 06:22:06;;;;;;;;;21.25;21.25;;;;;12.77;75.65;100970.41;5125678;27;10901;-73
2021/09/24 06:25:04;;;;;;;;;20.75;20.75;;;;;13.00;74.31;100966.13;5115888;27;10723;-74
2021/09/24 06:27:59;;;;;;;;;19.25;19.25;;;;;13.16;72.89;100966.31;5115379;27;10646;-73
2021/09/24 06:31:01;;;;;;;;;19.75;19.75;;;;;13.28;73.04;100958.06;5122045;27;10373;-73
2021/09/24 06:33:56;;;;;;;;;20.00;20.00;;;;;13.55;72.70;100950.22;5135483;27;10607;-74
2021/09/24 06:36:52;;;;;;;;;16.25;16.25;;;;;13.69;72.28;100945.16;5134248;27;10433;-74
2021/09/24 06:39:48;;;;;;;;;24.75;23.75;;;;;13.64;70.92;100951.75;5134843;27;10164;-75
2021/09/24 06:42:43;;;;;;;;;18.50;18.50;;;;;13.12;71.24;100951.50;5146642;27;11209;-73
2021/09/24 06:45:39;;;;;;;;;18.00;18.00;;;;;13.22;70.59;100950.28;5135228;27;10354;-74
2021/09/24 06:48:35;;;;;;;;;25.25;24.25;;;;;13.31;70.58;100953.78;5143876;27;10318;-74
2021/09/24 06:51:31;;;;;;;;;15.75;15.50;;;;;13.25;69.47;100942.06;5135201;27;10378;-74
2021/09/24 06:54:26;;;;;;;;;23.00;21.75;;;;;13.29;69.83;100942.19;5163060;27;10558;-73
2021/09/24 06:57:22;;;;;;;;;22.50;22.50;;;;;13.46;69.31;100932.84;5155543;27;10315;-74
2021/09/24 07:00:18;;;;;;;;;20.75;19.75;;;;;13.53;69.46;100931.13;5154962;27;10648;-74
2021/09/24 07:03:13;;;;;;;;;14.25;14.25;;;;;13.48;68.03;100927.75;5144565;27;10402;-74
2021/09/24 07:06:09;;;;;;;;;15.75;15.75;;;;;13.35;68.28;100915.84;5138698;27;10980;-73
2021/09/24 07:09:05;;;;;;;;;15.50;15.50;;;;;13.61;69.30;100915.50;5133888;27;10289;-73
2021/09/24 07:12:00;;;;;;;;;14.50;14.50;;;;;13.46;65.14;100903.09;5140872;27;10124;-74
2021/09/24 07:14:56;;;;;;;;;8.75;8.75;;;;;13.63;62.61;100890.97;5143629;27;10396;-73
2021/09/24 07:17:51;;;;;;;;;10.00;9.00;;;;;14.10;61.00;100893.25;5137826;27;9979;-73
2021/09/24 07:20:47;;;;;;;;;13.50;11.75;;;;;14.25;60.08;100889.75;5138035;27;10050;-73
2021/09/24 07:23:43;;;;;;;;;9.25;9.25;;;;;14.57;58.57;100890.78;5137139;27;9520;-73
2021/09/24 07:26:38;;;;;;;;;3.00;3.00;;;;;14.56;57.35;100886.34;5133910;27;9741;-74
2021/09/24 07:29:34;;;;;;;;;7.25;6.50;;;;;14.80;57.12;100890.19;5134919;27;9603;-74
2021/09/24 07:32:30;;;;;;;;;6.00;6.00;;;;;14.98;55.19;100885.94;5144094;27;10236;-74
2021/09/24 07:35:26;;;;;;;;;5.00;5.00;;;;;15.19;55.04;100869.00;5155349;27;9525;-73
2021/09/24 07:38:22;;;;;;;;;1.33;1.33;;;;;15.22;53.52;100880.22;5154886;27;9163;-73
2021/09/24 07:41:19;;;;;;;;;2.00;2.00;;;;;15.40;53.07;100877.09;5155217;27;9063;-75
2021/09/24 07:44:15;;;;;;;;;2.00;2.00;;;;;15.17;52.36;100882.47;5142839;27;9164;-71
2021/09/24 07:47:10;;;;;;;;;2.00;2.00;;;;;15.25;52.79;100865.56;5134237;27;9096;-73
2021/09/24 07:50:06;;;;;;;;;1.00;1.00;;;;;15.39;52.43;100872.69;5134272;27;9075;-73
2021/09/24 07:53:02;;;;;;;;;1.25;1.25;;;;;15.39;52.38;100859.56;5147280;27;8959;-73
2021/09/24 07:55:57;;;;;;;;;3.25;3.00;;;;;15.51;53.71;100856.69;5172255;27;8833;-73
2021/09/24 07:58:53;;;;;;;;;2.00;2.00;;;;;15.91;54.30;100855.69;5154316;27;8840;-73
2021/09/24 08:01:48;;;;;;;;;2.75;2.75;;;;;15.82;52.92;100863.44;5159218;27;8930;-72
2021/09/24 08:04:44;;;;;;;;;6.33;5.33;;;;;15.48;51.80;100856.59;5175854;27;9404;-74
2021/09/24 08:07:40;;;;;;;;;4.33;4.33;;;;;15.19;52.14;100853.09;5174479;27;9146;-73
2021/09/24 08:10:35;;;;;;;;;1.00;1.00;;;;;15.08;52.25;100863.13;5158656;27;9076;-73
2021/09/24 08:13:31;;;;;;;;;2.67;2.67;;;;;14.77;52.79;100851.94;5164117;27;8987;-73
2021/09/24 08:16:26;;;;;;;;;2.33;2.00;;;;;14.43;53.80;100854.13;5174229;27;9860;-73
2021/09/24 08:19:22;;;;;;;;;3.00;3.00;;;;;14.54;54.99;100851.69;5154061;27;8902;-72
2021/09/24 08:22:18;;;;;;;;;2.00;2.00;;;;;14.48;56.41;100850.31;5160569;27;9297;-73
2021/09/24 08:25:17;;;;;;;;;3.00;3.00;;;;;14.49;56.81;100841.59;5174434;27;9132;-73
2021/09/24 08:28:15;;;;;;;;;4.67;4.00;;;;;14.39;56.77;100834.53;5160106;27;9315;-74
2021/09/24 08:31:10;;;;;;;;;3.67;3.67;;;;;14.69;56.44;100846.16;5153498;27;9311;-73
2021/09/24 08:34:06;;;;;;;;;3.25;3.25;;;;;14.52;58.25;100837.31;5139747;27;9310;-72
2021/09/24 08:37:02;;;;;;;;;5.00;5.00;;;;;14.34;58.32;100837.59;5139499;27;9475;-72
2021/09/24 08:39:57;;;;;;;;;2.75;2.75;;;;;14.25;58.92;100836.91;5153602;27;9477;-74
2021/09/24 08:42:54;;;;;;;;;6.00;6.00;;;;;14.13;59.82;100834.97;5153549;27;9504;-74
2021/09/24 08:45:49;;;;;;;;;5.75;5.75;;;;;14.33;59.46;100841.50;5154737;27;9595;-74
2021/09/24 08:48:45;;;;;;;;;4.00;4.00;;;;;14.15;59.92;100846.56;5146373;27;9816;-73
2021/09/24 08:51:41;;;;;;;;;7.00;7.00;;;;;13.87;61.21;100828.97;5160537;27;9502;-73
2021/09/24 08:54:38;;;;;;;;;11.00;11.00;;;;;14.25;60.47;100836.09;5167547;27;10648;-74
2021/09/24 08:57:34;;;;;;;;;12.50;12.50;;;;;14.40;60.46;100816.69;5154002;27;9972;-73
2021/09/24 09:00:32;;;;;;;;;11.00;11.00;;;;;14.23;59.44;100835.63;5153296;27;9976;-75
2021/09/24 09:03:44;;;;;;;;;12.75;11.75;;;;;14.30;59.65;100835.84;5140155;27;9914;-74
2021/09/24 09:06:39;;;;;;;;;10.00;10.00;;;;;14.10;60.54;100838.44;5139467;27;9742;-73
2021/09/24 09:09:38;;;;;;;;;8.00;8.00;;;;;14.32;61.40;100836.31;5153159;27;9759;-74
2021/09/24 09:12:35;;;;;;;;;9.00;9.00;;;;;14.43;59.69;100835.47;5153259;27;10445;-73
2021/09/24 09:15:30;;;;;;;;;9.00;8.75;;;;;14.60;59.14;100831.59;5153086;27;9810;-74
2021/09/24 09:18:28;;;;;;;;;9.00;9.00;;;;;14.60;59.25;100825.22;5139886;27;9672;-74
2021/09/24 09:21:24;;;;;;;;;9.75;9.75;;;;;15.03;58.23;100818.84;5153049;27;9659;-74
2021/09/24 09:24:26;;;;;;;;;5.50;5.50;;;;;14.75;59.19;100816.09;5152942;27;9691;-73
2021/09/24 09:27:22;;;;;;;;;6.00;6.00;;;;;14.86;58.45;100828.31;5143187;27;9573;-74
2021/09/24 09:30:18;;;;;;;;;5.75;5.75;;;;;14.84;57.20;100825.09;5143147;27;9443;-74
2021/09/24 09:33:17;;;;;;;;;4.33;4.33;;;;;14.77;57.22;100813.75;5156849;27;9648;-74
2021/09/24 09:36:21;;;;;;;;;4.50;4.50;;;;;14.79;55.95;100808.66;5142981;27;9383;-75
2021/09/24 09:39:17;;;;;;;;;3.00;3.00;;;;;14.98;55.62;100811.56;5156683;27;9537;-73
2021/09/24 09:42:13;;;;;;;;;3.00;3.00;;;;;15.27;55.44;100799.19;5156870;27;9403;-74
2021/09/24 09:45:13;;;;;;;;;5.33;5.33;;;;;15.43;56.13;100785.22;5156500;27;9298;-74
2021/09/24 09:48:13;;;;;;;;;7.00;6.33;;;;;15.65;55.52;100791.34;5156165;27;9348;-74
2021/09/24 09:51:20;;;;;;;;;7.75;7.25;;;;;15.69;55.28;100775.50;5157234;27;9146;-75
2021/09/24 09:54:27;;;;;;;;;7.00;7.00;;;;;15.49;55.07;100778.22;5156189;27;9506;-75
2021/09/24 09:57:22;;;;;;;;;4.00;4.00;;;;;15.63;55.84;100777.75;5156269;27;9224;-76
2021/09/24 10:00:18;;;;;;;;;5.67;5.67;;;;;15.64;56.39;100768.25;5142752;27;9240;-75
2021/09/24 10:03:14;;;;;;;;;6.67;6.67;;;;;15.68;55.47;100771.91;5156310;27;9221;-73
2021/09/24 10:06:32;;;;;;;;;4.00;4.00;;;;;15.80;55.09;100757.84;5156281;27;9239;-73
2021/09/24 10:09:31;;;;;;;;;5.00;5.00;;;;;15.58;54.97;100759.31;5156191;27;9042;-73
2021/09/24 10:12:26;;;;;;;;;5.00;5.00;;;;;15.47;55.72;100758.25;5155885;27;9000;-74
2021/09/24 10:15:22;;;;;;;;;4.00;4.00;;;;;15.35;55.43;100761.16;5156721;27;9348;-73
2021/09/24 10:18:18;;;;;;;;;1.67;1.67;;;;;15.67;54.37;100741.59;5156464;27;8906;-72
2021/09/24 10:21:14;;;;;;;;;3.33;3.33;;;;;15.74;53.68;100737.00;5156093;27;9141;-74
2021/09/24 10:24:09;;;;;;;;;4.00;4.00;;;;;16.19;52.57;100727.19;5156283;27;9049;-73
2021/09/24 10:27:07;;;;;;;;;5.33;5.33;;;;;16.14;51.00;100727.47;5163066;27;9202;-74
2021/09/24 10:30:25;;;;;;;;;4.00;4.00;;;;;16.16;49.59;100718.72;5162614;27;9054;-73
2021/09/24 10:33:44;;;;;;;;;2.25;2.25;;;;;16.20;50.10;100712.06;5158050;27;9013;-75
2021/09/24 10:36:56;;;;;;;;;2.50;2.50;;;;;16.46;50.22;100700.19;5161886;27;8831;-75
2021/09/24 10:39:59;;;;;;;;;3.75;2.00;;;;;16.19;49.41;100710.44;5162392;27;8811;-74
2021/09/24 10:43:01;;;;;;;;;5.75;3.25;;;;;15.98;49.83;100704.44;5160143;27;8823;-74
2021/09/24 10:45:57;;;;;;;;;5.00;5.00;;;;;15.76;50.75;100697.59;5155739;27;8972;-74
2021/09/24 10:49:12;;;;;;;;;0.75;0.75;;;;;15.58;51.54;100692.41;5166680;27;8915;-75
2021/09/24 10:52:13;;;;;;;;;3.00;3.00;;;;;15.67;51.95;100694.22;5168363;27;8831;-74
2021/09/24 10:55:09;;;;;;;;;5.00;5.00;;;;;15.81;51.80;100692.53;5175838;27;8910;-73
2021/09/24 10:58:06;;;;;;;;;4.33;4.33;;;;;15.65;51.50;100694.59;5174799;27;9063;-76
2021/09/24 11:01:05;;;;;;;;;4.00;4.00;;;;;15.62;51.29;100695.28;5173934;27;9151;-75
2021/09/24 11:04:12;;;;;;;;;4.67;4.67;;;;;15.42;51.96;100693.63;5175781;27;9252;-73
2021/09/24 11:07:08;;;;;;;;;5.00;5.00;;;;;15.42;51.83;100683.28;5161619;27;9155;-76
2021/09/24 11:10:05;;;;;;;;;4.00;4.00;;;;;15.46;52.06;100681.38;5172466;27;9231;-76
2021/09/24 11:13:08;;;;;;;;;5.00;5.00;;;;;15.35;53.01;100676.75;5154792;27;9207;-74
2021/09/24 11:16:06;;;;;;;;;5.33;5.33;;;;;15.34;52.62;100673.16;5140357;27;9064;-75
2021/09/24 11:19:01;;;;;;;;;4.00;4.00;;;;;15.41;52.65;100675.28;5154661;27;9071;-77
2021/09/24 11:22:23;;;;;;;;;4.00;4.00;;;;;15.41;53.34;100662.19;5153615;27;8922;-77
2021/09/24 11:25:18;;;;;;;;;4.00;4.00;;;;;15.22;53.88;100656.56;5154405;27;8922;-77
2021/09/24 11:28:32;;;;;;;;;5.33;5.33;;;;;15.33;54.85;100657.59;5153514;27;9173;-75
2021/09/24 11:31:53;;;;;;;;;3.33;3.33;;;;;15.17;54.54;100649.28;5160145;27;9869;-76
2021/09/24 11:34:48;;;;;;;;;8.67;7.00;;;;;15.07;54.57;100655.41;5175222;27;9142;-77
2021/09/24 11:37:46;;;;;;;;;5.00;5.00;;;;;15.11;55.83;100647.97;5173279;27;9347;-78
2021/09/24 11:40:53;;;;;;;;;8.33;8.33;;;;;15.05;56.80;100652.19;5162462;27;9432;-77
2021/09/24 11:43:48;;;;;;;;;4.33;4.33;;;;;15.11;56.58;100647.97;5161791;27;9205;-76
2021/09/24 11:46:44;;;;;;;;;4.00;3.67;;;;;14.95;56.44;100634.06;5162902;27;9438;-77
2021/09/24 11:50:02;;;;;;;;;4.00;4.00;;;;;15.00;58.47;100628.19;5153015;27;9294;-76
2021/09/24 11:53:00;;;;;;;;;5.75;5.75;;;;;15.13;58.76;100619.75;5153829;27;9248;-77
2021/09/24 11:55:55;;;;;;;;;5.00;5.00;;;;;14.68;58.92;100616.31;5154225;27;9431;-77
2021/09/24 11:59:11;;;;;;;;;3.00;3.00;;;;;14.99;59.58;100618.22;5153726;27;9412;-77
2021/09/24 12:02:07;;;;;;;;;4.67;4.67;;;;;15.01;60.84;100612.28;5153996;27;9380;-77
2021/09/24 12:05:04;;;;;;;;;7.00;7.00;;;;;15.02;61.37;100611.94;5165862;27;9372;-77
2021/09/24 12:07:59;;;;;;;;;5.00;5.00;;;;;14.74;61.57;100608.50;5161344;27;9236;-77
2021/09/24 12:11:05;;;;;;;;;4.00;4.00;;;;;14.61;62.90;100593.84;5165950;27;9321;-77
2021/09/24 12:14:02;;;;;;;;;4.50;4.50;;;;;14.65;63.48;100605.09;5140089;27;9464;-77
2021/09/24 12:16:58;;;;;;;;;6.75;6.75;;;;;14.54;64.36;100593.69;5153343;27;9675;-77
2021/09/24 12:19:54;;;;;;;;;4.00;4.00;;;;;14.45;65.29;100601.38;5144061;27;9670;-75
2021/09/24 12:22:49;;;;;;;;;6.50;6.50;;;;;14.49;67.04;100602.28;5159200;27;9424;-77
2021/09/24 12:25:56;;;;;;;;;9.00;9.00;;;;;14.51;68.79;100599.97;5153843;27;9502;-77
2021/09/24 12:29:05;;;;;;;;;6.25;6.25;;;;;14.34;70.03;100615.03;5149442;27;9653;-76
2021/09/24 12:32:22;;;;;;;;;6.25;6.25;;;;;14.26;70.67;100615.19;5153524;27;9835;-75
2021/09/24 12:35:20;;;;;;;;;7.75;7.75;;;;;14.24;72.17;100601.63;5165576;27;9658;-74
2021/09/24 12:38:31;;;;;;;;;5.25;5.25;;;;;14.13;71.05;100606.94;5170021;27;9820;-75
2021/09/24 12:41:36;;;;;;;;;8.00;8.00;;;;;13.95;72.03;100600.06;5153470;27;9646;-75
2021/09/24 12:44:32;;;;;;;;;9.25;9.25;;;;;13.87;72.00;100612.16;5139703;27;9677;-76
2021/09/24 12:47:30;;;;;;;;;6.50;6.50;;;;;13.62;72.88;100606.72;5153309;27;9684;-77
2021/09/24 12:50:26;;;;;;;;;10.00;10.00;;;;;13.79;74.68;100610.34;5169304;27;9824;-76
2021/09/24 12:53:22;;;;;;;;;5.25;5.25;;;;;13.57;75.71;100606.97;5157262;27;9906;-76
2021/09/24 12:56:20;;;;;;;;;8.25;8.25;;;;;13.40;77.96;100603.66;5162389;27;9761;-76
2021/09/24 12:59:17;;;;;;;;;11.25;11.25;;;;;13.26;78.99;100598.47;5160339;27;10731;-77
2021/09/24 13:02:15;;;;;;;;;9.75;9.75;;;;;13.34;80.38;100598.38;5164203;27;10229;-76
2021/09/24 13:05:13;;;;;;;;;10.75;10.75;;;;;13.33;80.31;100602.28;5164145;27;10248;-77
2021/09/24 13:08:09;;;;;;;;;15.25;14.25;;;;;13.07;81.88;100593.53;5158528;27;10206;-75
2021/09/24 13:11:06;;;;;;;;;11.75;11.75;;;;;13.14;81.92;100588.19;5158629;27;10236;-75
2021/09/24 13:14:04;;;;;;;;;8.50;8.50;;;;;13.28;82.70;100577.56;5162721;27;10293;-75
2021/09/24 13:17:00;;;;;;;;;11.75;11.75;;;;;13.30;82.20;100569.66;5171212;27;10369;-76
2021/09/24 13:19:56;;;;;;;;;13.00;13.00;;;;;13.31;82.94;100568.50;5162153;27;10323;-75
2021/09/24 13:22:52;;;;;;;;;11.75;11.75;;;;;13.44;83.37;100569.28;5166797;27;10137;-72
2021/09/24 13:25:50;;;;;;;;;9.00;9.00;;;;;13.36;84.00;100567.47;5157751;27;10232;-73
2021/09/24 13:28:45;;;;;;;;;9.00;9.00;;;;;13.36;84.88;100567.47;5156766;27;10079;-74
2021/09/24 13:31:42;;;;;;;;;6.00;6.00;;;;;13.51;84.27;100575.03;5160669;27;10188;-76
2021/09/24 13:34:37;;;;;;;;;9.00;9.00;;;;;13.45;84.84;100559.78;5176412;27;9868;-77
2021/09/24 13:37:34;;;;;;;;;16.25;14.00;;;;;13.50;84.67;100555.94;5177682;27;10111;-77
2021/09/24 13:40:29;;;;;;;;;12.75;12.75;;;;;13.34;86.10;100559.47;5171625;27;10139;-73